createdAt,value
2023-01-30T00:00:05.851Z,76.12
2023-01-30T00:02:32.938Z,75.35
2023-01-30T00:05:00.439Z,75.62
2023-01-30T00:07:27.549Z,75.65
2023-01-30T00:09:54.634Z,75.67
2023-01-30T00:12:21.797Z,75.72
2023-01-30T00:14:48.839Z,75.52
2023-01-30T00:17:15.840Z,75.53
2023-01-30T00:19:42.892Z,75.58
2023-01-30T00:22:09.976Z,75.60
2023-01-30T00:24:37.272Z,76.00
2023-01-30T00:27:04.472Z,76.76
2023-01-30T00:29:31.562Z,76.45
2023-01-30T00:31:58.774Z,76.16
2023-01-30T00:34:25.885Z,76.91
2023-01-30T00:37:06.413Z,76.82
2023-01-30T00:39:35.062Z,76.93
2023-01-30T00:42:20.821Z,76.69
2023-01-30T00:45:06.323Z,76.63
2023-01-30T00:47:33.439Z,76.05
2023-01-30T00:50:00.488Z,76.01
2023-01-30T00:52:27.494Z,75.97
2023-01-30T00:54:54.498Z,76.19
2023-01-30T00:57:21.509Z,76.30
2023-01-30T00:59:49.702Z,76.59
2023-01-30T01:02:17.590Z,76.48
2023-01-30T01:04:44.690Z,76.14
2023-01-30T01:07:13.854Z,76.18
2023-01-30T01:09:41.963Z,76.14
2023-01-30T01:12:09.289Z,76.36
2023-01-30T01:14:36.681Z,76.28
2023-01-30T01:17:04.026Z,76.51
2023-01-30T01:19:31.173Z,76.91
2023-01-30T01:21:59.652Z,77.19
2023-01-30T01:24:27.425Z,77.83
2023-01-30T01:26:54.465Z,77.10
2023-01-30T01:29:21.706Z,77.70
2023-01-30T01:31:48.902Z,77.90
2023-01-30T01:34:16.144Z,78.24
2023-01-30T01:36:59.707Z,79.47
2023-01-30T01:39:46.821Z,79.63
2023-01-30T01:42:13.976Z,79.90
2023-01-30T01:45:10.949Z,79.92
2023-01-30T01:47:59.745Z,80.04
2023-01-30T01:50:50.841Z,78.85
2023-01-30T01:53:23.144Z,79.55
2023-01-30T01:55:53.706Z,80.18
2023-01-30T01:58:46.342Z,79.95
2023-01-30T02:01:13.676Z,79.87
2023-01-30T02:03:47.116Z,79.38
2023-01-30T02:06:17.152Z,79.91
2023-01-30T02:08:50.089Z,79.90
2023-01-30T02:11:46.200Z,79.66
2023-01-30T02:14:15.351Z,81.33
2023-01-30T02:16:46.011Z,79.51
2023-01-30T02:19:57.270Z,80.67
2023-01-30T02:22:59.833Z,79.31
2023-01-30T02:26:14.729Z,79.64
2023-01-30T02:28:59.837Z,81.08
2023-01-30T02:31:45.541Z,80.94
2023-01-30T02:35:07.921Z,81.21
2023-01-30T02:38:16.213Z,81.19
2023-01-30T02:41:24.485Z,80.90
2023-01-30T02:44:05.543Z,80.86
2023-01-30T02:47:29.642Z,81.09
2023-01-30T02:50:32.847Z,80.96
2023-01-30T02:53:00.172Z,80.86
2023-01-30T02:55:28.604Z,80.76
2023-01-30T02:57:56.102Z,80.75
2023-01-30T03:01:03.043Z,80.56
2023-01-30T03:04:26.826Z,80.21
2023-01-30T03:07:44.673Z,80.06
2023-01-30T03:10:42.808Z,80.01
2023-01-30T03:13:28.759Z,80.04
2023-01-30T03:16:12.326Z,79.84
2023-01-30T03:18:43.727Z,79.67
2023-01-30T03:21:12.121Z,79.69
2023-01-30T03:23:39.238Z,80.07
2023-01-30T03:26:13.574Z,80.15
2023-01-30T03:28:40.957Z,80.09
2023-01-30T03:31:09.281Z,79.88
2023-01-30T03:33:36.605Z,80.16
2023-01-30T03:36:04.327Z,80.11
2023-01-30T03:38:34.178Z,79.76
2023-01-30T03:41:02.941Z,79.82
2023-01-30T03:43:30.480Z,79.78
2023-01-30T03:45:57.562Z,79.96
2023-01-30T03:48:24.770Z,79.99
2023-01-30T03:50:53.343Z,80.17
2023-01-30T03:53:20.447Z,80.14
2023-01-30T03:55:47.479Z,80.33
2023-01-30T03:58:14.839Z,80.26
2023-01-30T04:00:42.068Z,80.23
2023-01-30T04:03:09.162Z,80.22
2023-01-30T04:05:36.308Z,80.27
2023-01-30T04:08:09.653Z,80.16
2023-01-30T04:10:36.838Z,80.01
2023-01-30T04:13:03.963Z,79.93
2023-01-30T04:15:31.469Z,79.99
2023-01-30T04:19:00.955Z,80.14
2023-01-30T04:21:31.131Z,80.28
2023-01-30T04:23:58.414Z,80.16
2023-01-30T04:26:25.906Z,80.10
2023-01-30T04:28:53.111Z,80.40
2023-01-30T04:31:20.327Z,80.30
2023-01-30T04:34:01.573Z,80.53
2023-01-30T04:36:28.765Z,80.86
2023-01-30T04:38:57.649Z,80.42
2023-01-30T04:41:24.921Z,80.11
2023-01-30T04:43:53.837Z,80.46
2023-01-30T04:46:34.748Z,80.98
2023-01-30T04:49:01.837Z,80.77
2023-01-30T04:51:29.193Z,79.58
2023-01-30T04:53:57.323Z,80.23
2023-01-30T04:56:24.466Z,79.85
2023-01-30T04:58:52.936Z,79.89
2023-01-30T05:01:46.521Z,80.43
2023-01-30T05:04:14.695Z,81.22
2023-01-30T05:06:41.714Z,81.18
2023-01-30T05:09:08.920Z,81.47
2023-01-30T05:11:36.892Z,81.91
2023-01-30T05:14:03.995Z,81.05
2023-01-30T05:16:31.107Z,81.43
2023-01-30T05:18:58.170Z,81.65
2023-01-30T05:21:28.079Z,81.09
2023-01-30T05:23:56.526Z,81.37
2023-01-30T05:26:23.860Z,81.32
2023-01-30T05:28:56.816Z,81.70
2023-01-30T05:31:24.421Z,82.85
2023-01-30T05:33:51.859Z,83.55
2023-01-30T05:36:21.414Z,83.22
2023-01-30T05:38:48.521Z,83.84
2023-01-30T05:41:16.794Z,84.45
2023-01-30T05:43:48.210Z,86.62
2023-01-30T05:46:15.442Z,88.81
2023-01-30T05:48:42.487Z,89.15
2023-01-30T05:51:18.850Z,89.41
2023-01-30T05:53:46.674Z,89.53
2023-01-30T05:56:14.508Z,88.98
2023-01-30T05:58:42.057Z,88.84
2023-01-30T06:01:12.620Z,89.75
2023-01-30T06:03:39.727Z,90.94
2023-01-30T06:06:07.331Z,90.79
2023-01-30T06:08:34.494Z,90.32
2023-01-30T06:11:04.352Z,90.45
2023-01-30T06:13:31.809Z,89.56
2023-01-30T06:15:59.262Z,88.49
2023-01-30T06:18:26.944Z,88.02
2023-01-30T06:20:54.403Z,87.67
2023-01-30T06:23:23.007Z,86.84
2023-01-30T06:25:52.051Z,86.57
2023-01-30T06:28:20.013Z,86.72
2023-01-30T06:30:47.788Z,87.06
2023-01-30T06:33:15.129Z,87.63
2023-01-30T06:35:43.373Z,87.95
2023-01-30T06:38:11.195Z,87.70
2023-01-30T06:40:39.185Z,88.25
2023-01-30T06:43:06.767Z,89.30
2023-01-30T06:45:33.765Z,88.66
2023-01-30T06:48:00.898Z,90.03
2023-01-30T06:50:29.835Z,90.57
2023-01-30T06:52:58.987Z,90.25
2023-01-30T06:55:27.909Z,88.56
2023-01-30T06:58:07.432Z,89.12
2023-01-30T07:00:35.663Z,88.90
2023-01-30T07:03:02.782Z,88.19
2023-01-30T07:05:29.904Z,87.25
2023-01-30T07:07:57.476Z,86.88
2023-01-30T07:10:25.742Z,86.88
2023-01-30T07:12:53.151Z,86.30
2023-01-30T07:15:20.514Z,85.77
2023-01-30T07:17:47.739Z,85.91
2023-01-30T07:20:15.681Z,85.57
2023-01-30T07:22:42.835Z,85.11
2023-01-30T07:25:09.894Z,84.17
2023-01-30T07:27:36.931Z,83.92
2023-01-30T07:30:04.807Z,83.80
2023-01-30T07:32:32.125Z,82.62
2023-01-30T07:34:59.164Z,81.11
2023-01-30T07:37:26.268Z,79.95
2023-01-30T07:39:53.664Z,79.63
2023-01-30T07:42:20.704Z,78.48
2023-01-30T07:44:47.770Z,78.54
2023-01-30T07:47:14.879Z,76.42
2023-01-30T07:49:41.955Z,76.51
2023-01-30T07:52:09.517Z,74.45
2023-01-30T07:54:36.552Z,73.22
2023-01-30T07:57:03.658Z,73.14
2023-01-30T07:59:30.756Z,73.57
2023-01-30T08:01:58.169Z,72.51
2023-01-30T08:04:25.258Z,72.64
2023-01-30T08:06:52.317Z,72.40
2023-01-30T08:09:19.423Z,72.07
2023-01-30T08:11:46.594Z,71.03
2023-01-30T08:14:13.740Z,70.61
2023-01-30T08:16:41.055Z,68.92
2023-01-30T08:19:08.453Z,69.28
2023-01-30T08:21:35.651Z,68.92
2023-01-30T08:24:02.766Z,68.63
2023-01-30T08:26:29.863Z,66.17
2023-01-30T08:28:56.975Z,64.93
2023-01-30T08:31:24.055Z,63.94
2023-01-30T08:33:51.159Z,63.31
2023-01-30T08:36:18.174Z,63.53
2023-01-30T08:38:45.247Z,62.95
2023-01-30T08:41:12.285Z,63.14
2023-01-30T08:43:39.315Z,63.03
2023-01-30T08:46:06.758Z,63.50
2023-01-30T08:48:47.467Z,63.18
2023-01-30T08:51:15.982Z,62.89
2023-01-30T08:53:43.065Z,61.54
2023-01-30T08:56:10.123Z,61.25
2023-01-30T08:58:37.213Z,61.12
2023-01-30T09:01:07.419Z,59.73
2023-01-30T09:03:35.231Z,58.75
2023-01-30T09:06:02.584Z,58.65
2023-01-30T09:08:29.684Z,58.65
2023-01-30T09:11:01.492Z,59.02
2023-01-30T09:13:29.460Z,59.14
2023-01-30T09:15:57.860Z,59.33
2023-01-30T09:18:25.268Z,58.38
2023-01-30T09:20:53.520Z,59.01
2023-01-30T09:23:20.831Z,58.48
2023-01-30T09:25:47.917Z,58.60
2023-01-30T09:28:15.005Z,59.14
2023-01-30T09:30:42.380Z,59.03
2023-01-30T09:33:09.473Z,59.13
2023-01-30T09:35:36.589Z,59.29
2023-01-30T09:38:05.124Z,58.38
2023-01-30T09:40:36.585Z,58.53
2023-01-30T09:43:12.953Z,57.64
2023-01-30T09:45:51.249Z,58.32
2023-01-30T09:48:29.139Z,57.59
2023-01-30T09:51:26.299Z,56.61
2023-01-30T09:54:00.924Z,56.57
2023-01-30T09:56:28.412Z,55.41
2023-01-30T09:59:02.476Z,55.93
2023-01-30T10:01:51.121Z,56.33
2023-01-30T10:04:40.380Z,54.48
2023-01-30T10:07:27.042Z,54.84
2023-01-30T10:10:15.201Z,53.90
2023-01-30T10:13:03.022Z,55.94
2023-01-30T10:16:02.012Z,56.09
2023-01-30T10:19:02.016Z,58.71
2023-01-30T10:22:01.510Z,56.15
2023-01-30T10:25:10.094Z,55.10
2023-01-30T10:27:53.317Z,57.71
2023-01-30T10:30:21.318Z,55.56
2023-01-30T10:33:01.600Z,56.31
2023-01-30T10:35:38.997Z,57.42
2023-01-30T10:38:20.161Z,55.90
2023-01-30T10:41:06.960Z,56.38
2023-01-30T10:43:40.881Z,56.35
2023-01-30T10:46:26.740Z,57.03
2023-01-30T10:49:06.078Z,57.06
2023-01-30T10:52:20.656Z,57.77
2023-01-30T10:54:59.750Z,56.23
2023-01-30T10:57:54.845Z,55.48
2023-01-30T11:01:24.554Z,55.32
2023-01-30T11:04:05.376Z,55.49
2023-01-30T11:06:33.777Z,57.05
2023-01-30T11:09:02.143Z,54.82
2023-01-30T11:11:34.020Z,56.43
2023-01-30T11:14:10.678Z,54.56
2023-01-30T11:16:52.532Z,53.77
2023-01-30T11:19:34.113Z,53.12
2023-01-30T11:22:04.491Z,52.39
2023-01-30T11:24:39.671Z,51.57
2023-01-30T11:27:23.796Z,51.40
2023-01-30T11:30:03.366Z,51.09
2023-01-30T11:32:30.590Z,50.71
2023-01-30T11:35:15.163Z,50.37
2023-01-30T11:37:43.877Z,50.00
2023-01-30T11:40:17.190Z,49.95
2023-01-30T11:42:48.547Z,48.85
2023-01-30T11:45:18.719Z,51.00
2023-01-30T11:48:05.455Z,50.03
2023-01-30T11:50:49.840Z,51.93
2023-01-30T11:53:29.021Z,50.62
2023-01-30T11:56:20.027Z,50.79
2023-01-30T11:59:26.673Z,50.77
2023-01-30T12:02:14.153Z,49.33
2023-01-30T12:04:53.298Z,49.74
2023-01-30T12:07:24.588Z,48.85
2023-01-30T12:09:53.656Z,48.71
2023-01-30T12:12:31.590Z,49.57
2023-01-30T12:15:26.452Z,49.68
2023-01-30T12:18:10.553Z,50.18
2023-01-30T12:20:55.295Z,51.94
2023-01-30T12:23:48.353Z,48.81
2023-01-30T12:26:33.502Z,49.35
2023-01-30T12:29:32.748Z,48.16
2023-01-30T12:32:21.580Z,47.68
2023-01-30T12:34:50.178Z,48.03
2023-01-30T12:37:49.751Z,48.80
2023-01-30T12:40:53.360Z,48.73
2023-01-30T12:44:01.504Z,48.22
2023-01-30T12:47:03.376Z,48.93
2023-01-30T12:49:57.309Z,48.06
2023-01-30T12:53:06.970Z,47.08
2023-01-30T12:55:59.442Z,46.10
2023-01-30T12:58:45.384Z,47.67
2023-01-30T13:01:40.876Z,47.30
2023-01-30T13:04:24.571Z,46.77
2023-01-30T13:07:23.131Z,45.64
2023-01-30T13:10:16.241Z,45.75
2023-01-30T13:13:35.422Z,49.40
2023-01-30T13:16:06.665Z,47.68
2023-01-30T13:19:03.566Z,46.20
2023-01-30T13:21:56.226Z,46.69
2023-01-30T13:25:02.259Z,45.94
2023-01-30T13:27:35.186Z,45.93
2023-01-30T13:30:09.964Z,46.70
2023-01-30T13:32:47.360Z,46.55
2023-01-30T13:35:24.118Z,48.04
2023-01-30T13:37:52.241Z,46.84
2023-01-30T13:40:38.103Z,47.30
2023-01-30T13:43:29.700Z,47.71
2023-01-30T13:46:02.290Z,47.31
2023-01-30T13:48:58.377Z,47.92
2023-01-30T13:51:46.517Z,48.60
2023-01-30T13:54:34.286Z,48.93
2023-01-30T13:57:12.301Z,49.01
2023-01-30T14:00:04.161Z,49.96
2023-01-30T14:03:18.883Z,50.64
2023-01-30T14:05:52.366Z,50.51
2023-01-30T14:08:29.972Z,49.90
2023-01-30T14:10:58.179Z,50.74
2023-01-30T14:13:27.014Z,49.97
2023-01-30T14:16:05.786Z,50.23
2023-01-30T14:18:37.998Z,50.32
2023-01-30T14:21:16.519Z,50.87
2023-01-30T14:23:59.692Z,51.58
2023-01-30T14:26:49.506Z,51.82
2023-01-30T14:29:38.483Z,51.16
2023-01-30T14:32:11.669Z,51.86
2023-01-30T14:35:16.520Z,52.61
2023-01-30T14:37:49.991Z,53.52
2023-01-30T14:40:22.879Z,54.00
2023-01-30T14:43:11.767Z,55.38
2023-01-30T14:45:56.737Z,57.45
2023-01-30T14:49:00.362Z,58.90
2023-01-30T14:51:43.858Z,60.16
2023-01-30T14:54:14.310Z,61.03
2023-01-30T14:56:41.601Z,61.41
2023-01-30T15:00:11.501Z,62.06
2023-01-30T15:02:47.565Z,62.77
2023-01-30T15:05:19.513Z,63.35
2023-01-30T15:07:57.471Z,63.50
2023-01-30T15:11:09.035Z,63.68
2023-01-30T15:13:52.380Z,64.11
2023-01-30T15:16:59.232Z,64.65
2023-01-30T15:20:06.572Z,64.97
2023-01-30T15:23:27.279Z,65.05
2023-01-30T15:26:21.038Z,65.30
2023-01-30T15:29:25.308Z,65.54
2023-01-30T15:32:15.876Z,64.75
2023-01-30T15:34:55.609Z,64.36
2023-01-30T15:37:54.488Z,64.78
2023-01-30T15:40:30.716Z,64.91
2023-01-30T15:43:00.719Z,65.47
2023-01-30T15:46:11.780Z,67.17
2023-01-30T15:49:10.386Z,66.25
2023-01-30T15:51:38.179Z,69.04
2023-01-30T15:54:14.620Z,68.81
2023-01-30T15:56:45.349Z,69.41
2023-01-30T15:59:32.221Z,69.81
2023-01-30T16:02:12.763Z,68.94
2023-01-30T16:04:40.018Z,69.29
2023-01-30T16:07:26.468Z,69.78
2023-01-30T16:10:06.737Z,69.44
2023-01-30T16:12:37.422Z,69.22
2023-01-30T16:15:18.850Z,69.08
2023-01-30T16:18:09.929Z,69.29
2023-01-30T16:21:01.513Z,69.67
2023-01-30T16:23:52.100Z,70.14
2023-01-30T16:26:21.300Z,70.08
2023-01-30T16:28:50.818Z,70.66
2023-01-30T16:31:18.792Z,70.94
2023-01-30T16:33:52.531Z,71.21
2023-01-30T16:36:19.593Z,71.48
2023-01-30T16:38:49.269Z,70.81
2023-01-30T16:41:42.750Z,71.16
2023-01-30T16:44:20.854Z,70.76
2023-01-30T16:46:54.959Z,71.21
2023-01-30T16:49:24.891Z,72.22
2023-01-30T16:52:18.994Z,71.43
2023-01-30T16:54:59.363Z,72.56
2023-01-30T16:57:28.048Z,72.78
2023-01-30T16:59:55.794Z,73.00
2023-01-30T17:02:53.642Z,73.30
2023-01-30T17:05:39.392Z,73.04
2023-01-30T17:08:44.553Z,74.72
2023-01-30T17:11:28.668Z,73.41
2023-01-30T17:14:21.509Z,75.12
2023-01-30T17:17:11.446Z,75.67
2023-01-30T17:19:38.658Z,75.45
2023-01-30T17:22:18.647Z,75.65
2023-01-30T17:24:45.748Z,73.01
2023-01-30T17:27:13.697Z,72.78
2023-01-30T17:29:43.501Z,73.21
2023-01-30T17:32:14.688Z,75.05
2023-01-30T17:34:41.863Z,75.18
2023-01-30T17:37:21.784Z,73.24
2023-01-30T17:39:48.932Z,74.33
2023-01-30T17:42:21.423Z,75.04
2023-01-30T17:44:48.982Z,73.62
2023-01-30T17:47:16.540Z,76.14
2023-01-30T17:49:43.706Z,75.87
2023-01-30T17:52:13.476Z,74.85
2023-01-30T17:54:40.699Z,74.68
2023-01-30T17:57:12.325Z,76.62
2023-01-30T17:59:39.346Z,77.26
2023-01-30T18:02:09.789Z,75.21
2023-01-30T18:04:39.342Z,74.31
2023-01-30T18:07:10.348Z,75.72
2023-01-30T18:09:37.422Z,75.27
2023-01-30T18:12:04.703Z,74.25
2023-01-30T18:14:31.828Z,74.94
2023-01-30T18:17:00.484Z,75.93
2023-01-30T18:19:29.110Z,77.07
2023-01-30T18:21:57.678Z,76.76
2023-01-30T18:24:24.799Z,76.31
2023-01-30T18:26:52.014Z,76.05
2023-01-30T18:29:19.135Z,76.26
2023-01-30T18:31:46.607Z,75.30
2023-01-30T18:34:14.154Z,74.53
2023-01-30T18:36:41.992Z,75.72
2023-01-30T18:39:11.263Z,76.16
2023-01-30T18:41:38.321Z,76.15
2023-01-30T18:44:06.580Z,74.94
2023-01-30T18:46:34.060Z,75.42
2023-01-30T18:49:01.199Z,75.70
2023-01-30T18:51:33.829Z,75.63
2023-01-30T18:54:01.590Z,74.82
2023-01-30T18:56:33.663Z,76.48
2023-01-30T18:59:03.849Z,76.42
2023-01-30T19:01:36.037Z,77.09
2023-01-30T19:04:06.072Z,76.44
2023-01-30T19:06:39.924Z,77.66
2023-01-30T19:09:07.903Z,79.07
2023-01-30T19:11:53.602Z,78.97
2023-01-30T19:14:20.618Z,78.98
2023-01-30T19:16:48.172Z,78.18
2023-01-30T19:19:15.335Z,77.96
2023-01-30T19:21:42.403Z,76.63
2023-01-30T19:24:15.151Z,77.71
2023-01-30T19:26:42.682Z,79.25
2023-01-30T19:29:10.462Z,78.87
2023-01-30T19:31:37.611Z,78.70
2023-01-30T19:34:05.750Z,79.58
2023-01-30T19:36:35.941Z,79.06
2023-01-30T19:39:05.551Z,78.03
2023-01-30T19:41:35.919Z,78.81
2023-01-30T19:44:07.844Z,79.04
2023-01-30T19:46:35.501Z,79.08
2023-01-30T19:49:03.691Z,79.03
2023-01-30T19:51:33.909Z,78.21
2023-01-30T19:54:04.518Z,77.80
2023-01-30T19:56:32.745Z,79.30
2023-01-30T19:59:01.143Z,79.16
2023-01-30T20:01:32.158Z,78.43
2023-01-30T20:04:01.166Z,78.23
2023-01-30T20:06:31.841Z,77.90
2023-01-30T20:09:03.344Z,79.21
2023-01-30T20:11:32.451Z,78.82
2023-01-30T20:14:00.841Z,81.90
2023-01-30T20:16:29.035Z,81.84
2023-01-30T20:19:02.679Z,79.57
2023-01-30T20:21:30.946Z,79.44
2023-01-30T20:23:59.552Z,79.94
2023-01-30T20:26:35.855Z,79.90
2023-01-30T20:29:04.165Z,79.44
2023-01-30T20:31:32.013Z,79.39
2023-01-30T20:34:02.391Z,79.46
2023-01-30T20:36:29.396Z,79.61
2023-01-30T20:39:01.304Z,79.14
2023-01-30T20:41:29.548Z,79.14
2023-01-30T20:43:57.297Z,79.41
2023-01-30T20:46:28.054Z,79.33
2023-01-30T20:48:57.984Z,79.63
2023-01-30T20:51:31.137Z,79.66
2023-01-30T20:54:05.310Z,79.42
2023-01-30T20:56:35.695Z,79.38
2023-01-30T20:59:04.781Z,78.38
2023-01-30T21:01:32.649Z,78.53
2023-01-30T21:04:05.521Z,78.10
2023-01-30T21:06:41.839Z,76.62
2023-01-30T21:09:17.010Z,76.80
2023-01-30T21:11:44.313Z,74.58
2023-01-30T21:14:11.982Z,74.60
2023-01-30T21:16:39.669Z,73.90
2023-01-30T21:19:14.237Z,72.76
2023-01-30T21:21:49.632Z,72.84
2023-01-30T21:24:19.721Z,72.28
2023-01-30T21:26:47.274Z,72.34
2023-01-30T21:29:18.720Z,72.47
2023-01-30T21:31:46.542Z,71.94
2023-01-30T21:34:13.899Z,71.43
2023-01-30T21:36:41.150Z,70.95
2023-01-30T21:39:31.581Z,70.62
2023-01-30T21:42:16.914Z,69.96
2023-01-30T21:44:43.937Z,70.09
2023-01-30T21:47:11.124Z,70.94
2023-01-30T21:49:40.098Z,71.78
2023-01-30T21:52:07.155Z,73.01
2023-01-30T21:54:34.177Z,74.06
2023-01-30T21:57:01.849Z,75.72
2023-01-30T21:59:30.632Z,78.25
2023-01-30T22:01:57.808Z,80.05
2023-01-30T22:04:24.890Z,82.13
2023-01-30T22:06:52.018Z,82.34
2023-01-30T22:09:19.093Z,80.20
2023-01-30T22:11:46.431Z,85.58
2023-01-30T22:14:14.131Z,86.67
2023-01-30T22:16:41.660Z,86.09
2023-01-30T22:19:09.337Z,87.20
2023-01-30T22:21:38.990Z,88.10
2023-01-30T22:24:08.984Z,89.34
2023-01-30T22:26:36.529Z,90.15
2023-01-30T22:29:05.874Z,89.15
2023-01-30T22:31:36.276Z,90.05
2023-01-30T22:34:04.238Z,89.72
2023-01-30T22:36:34.005Z,88.42
2023-01-30T22:39:01.629Z,89.31
2023-01-30T22:41:34.113Z,89.21
2023-01-30T22:44:04.225Z,87.78
2023-01-30T22:46:34.821Z,87.93
2023-01-30T22:49:04.686Z,88.42
2023-01-30T22:51:38.530Z,90.08
2023-01-30T22:54:10.103Z,88.65
2023-01-30T22:56:41.003Z,90.04
2023-01-30T22:59:08.986Z,88.64
2023-01-30T23:01:52.424Z,89.59
2023-01-30T23:04:22.440Z,89.76
2023-01-30T23:06:53.263Z,89.24
2023-01-30T23:09:22.944Z,91.49
2023-01-30T23:12:12.828Z,89.88
2023-01-30T23:14:41.737Z,90.46
2023-01-30T23:17:28.045Z,89.74
2023-01-30T23:19:55.292Z,88.91
2023-01-30T23:22:22.827Z,90.40
2023-01-30T23:24:50.584Z,89.74
2023-01-30T23:27:17.940Z,89.63
2023-01-30T23:29:45.034Z,89.24
2023-01-30T23:32:12.186Z,89.34
2023-01-30T23:34:39.385Z,89.63
2023-01-30T23:37:06.554Z,89.67
2023-01-30T23:39:33.594Z,90.09
2023-01-30T23:42:00.591Z,90.31
2023-01-30T23:44:27.693Z,90.06
2023-01-30T23:46:54.774Z,91.21
2023-01-30T23:49:21.980Z,90.82
2023-01-30T23:51:49.042Z,90.71
2023-01-30T23:54:17.099Z,90.96
2023-01-30T23:56:44.873Z,91.03
2023-01-30T23:59:12.307Z,91.16
